Time;durP1;ratioP1;P1;durP2;ratioP2;P2;SDS_P1;SDS_P2;PMS_P1;PMS_P2;Temp;Humidity;BMP_temperature;BMP_pressure;BME280_temperature;BME280_humidity;BME280_pressure;Samples;Min_cycle;Max_cycle;Signal;HPM_P1;HPM_P2
2023/07/28 00:02:13;;;;;;;19.77;15.43;;;;;;;21.97;100.00;97915.50;5065276;28;20149;-38
2023/07/28 00:04:39;;;;;;;21.58;13.75;;;;;;;21.96;100.00;97903.25;5067002;28;20045;-38
2023/07/28 00:07:05;;;;;;;16.73;14.13;;;;;;;21.78;100.00;97887.53;5065414;28;20051;-38
2023/07/28 00:09:33;;;;;;;21.67;15.02;;;;;;;21.98;100.00;97936.47;5066703;28;20052;-38
2023/07/28 00:12:00;;;;;;;21.60;15.13;;;;;;;22.00;100.00;97935.50;5067941;28;20451;-38
2023/07/28 00:14:26;;;;;;;21.55;14.73;;;;;;;21.81;100.00;97913.66;5067451;28;20464;-38
2023/07/28 00:16:53;;;;;;;21.13;16.02;;;;;;;22.00;100.00;97948.72;5065560;28;20512;-39
2023/07/28 00:19:20;;;;;;;23.45;15.20;;;;;;;21.82;100.00;97927.72;5065481;28;20400;-39
2023/07/28 00:21:50;;;;;;;24.38;14.80;;;;;;;21.98;100.00;97962.94;5033105;28;20463;-39
2023/07/28 00:24:16;;;;;;;20.85;14.00;;;;;;;21.96;100.00;97966.75;5059607;28;20078;-39
2023/07/28 00:26:43;;;;;;;18.15;14.73;;;;;;;21.76;100.00;97934.50;5067673;28;20041;-39
2023/07/28 00:29:11;;;;;;;19.77;13.83;;;;;;;21.86;100.00;97976.66;5067625;28;20097;-39
2023/07/28 00:31:36;;;;;;;21.73;14.38;;;;;;;21.83;100.00;97982.25;5066660;28;20053;-39
2023/07/28 00:34:03;;;;;;;19.52;13.30;;;;;;;21.76;100.00;97987.41;5064869;28;20044;-39
2023/07/28 00:36:30;;;;;;;18.08;13.68;;;;;;;21.57;100.00;97955.97;5058629;28;20094;-38
2023/07/28 00:38:56;;;;;;;17.58;14.35;;;;;;;21.70;100.00;97989.88;5070793;28;20132;-39
2023/07/28 00:41:22;;;;;;;21.90;14.25;;;;;;;21.67;100.00;97984.91;5067818;28;20836;-39
2023/07/28 00:43:48;;;;;;;15.60;13.68;;;;;;;21.65;100.00;97981.59;5058208;28;20037;-39
2023/07/28 00:46:15;;;;;;;22.00;14.55;;;;;;;21.66;100.00;97972.69;5066431;28;20047;-39
2023/07/28 00:48:40;;;;;;;19.83;14.10;;;;;;;21.64;100.00;97966.72;5067926;28;20044;-38
2023/07/28 00:51:07;;;;;;;19.50;13.43;;;;;;;21.64;100.00;97964.91;5069376;28;20045;-39
2023/07/28 00:53:34;;;;;;;22.38;13.23;;;;;;;21.65;100.00;97960.44;5066510;28;20032;-39
2023/07/28 00:56:01;;;;;;;20.63;13.05;;;;;;;21.61;100.00;97962.59;5031205;28;20328;-38
2023/07/28 00:58:27;;;;;;;18.58;13.18;;;;;;;21.63;100.00;97979.13;5067583;28;20052;-39
2023/07/28 01:00:53;;;;;;;17.42;13.00;;;;;;;21.60;100.00;97957.47;5071015;28;20089;-39
2023/07/28 01:03:19;;;;;;;17.92;12.93;;;;;;;21.43;100.00;97936.28;5069709;28;20093;-39
2023/07/28 01:06:33;;;;;;;18.40;13.10;;;;;;;21.60;100.00;97949.53;5048410;28;20048;-39
2023/07/28 01:09:03;;;;;;;22.88;15.00;;;;;;;21.56;100.00;97951.69;5041717;28;20049;-39
2023/07/28 01:11:30;;;;;;;18.50;14.45;;;;;;;21.54;100.00;97948.38;5049673;28;20127;-39
2023/07/28 01:13:56;;;;;;;14.73;12.27;;;;;;;21.52;100.00;97956.47;5066036;28;20093;-39
2023/07/28 01:16:24;;;;;;;15.30;12.52;;;;;;;21.55;100.00;97950.84;5067129;28;20040;-38
2023/07/28 01:18:50;;;;;;;18.38;12.10;;;;;;;21.55;100.00;97950.03;5066956;28;20802;-39
2023/07/28 01:21:26;;;;;;;18.60;13.48;;;;;;;21.56;100.00;97941.91;5049510;28;20056;-39
2023/07/28 01:24:29;;;;;;;16.02;12.13;;;;;;;21.56;100.00;97944.56;5066397;28;20082;-39
2023/07/28 01:26:55;;;;;;;18.08;12.73;;;;;;;21.55;100.00;97939.44;5048658;28;20071;-39
2023/07/28 01:29:21;;;;;;;19.20;12.77;;;;;;;21.52;100.00;97940.59;5031427;28;20140;-44
2023/07/28 01:31:49;;;;;;;17.17;12.80;;;;;;;21.53;100.00;97931.66;5031169;28;20063;-39
2023/07/28 01:34:15;;;;;;;18.40;12.48;;;;;;;21.54;100.00;97929.84;5034598;28;20530;-39
2023/07/28 01:36:41;;;;;;;17.10;12.55;;;;;;;21.55;100.00;97932.34;5043694;28;20041;-39
2023/07/28 01:39:07;;;;;;;17.38;12.93;;;;;;;21.58;100.00;97936.47;5048948;28;20051;-38
2023/07/28 01:41:33;;;;;;;17.00;12.25;;;;;;;21.63;100.00;97938.63;5050226;28;20037;-39
2023/07/28 01:43:59;;;;;;;15.02;11.98;;;;;;;21.53;100.00;97893.81;5080221;28;20044;-39
2023/07/28 01:46:24;;;;;;;18.98;12.85;;;;;;;21.71;100.00;97912.19;5067702;28;20032;-39
2023/07/28 01:48:50;;;;;;;20.25;12.82;;;;;;;21.52;100.00;97886.88;5069302;28;20056;-40
2023/07/28 01:51:17;;;;;;;16.85;12.55;;;;;;;21.74;100.00;97917.94;5067249;28;20051;-40
2023/07/28 01:53:43;;;;;;;21.60;12.60;;;;;;;21.73;100.00;97913.66;5062650;28;20040;-38
2023/07/28 01:56:09;;;;;;;13.73;11.82;;;;;;;21.73;100.00;97918.13;5060343;28;20147;-39
2023/07/28 01:58:35;;;;;;;17.45;12.63;;;;;;;21.72;100.00;97912.00;5066721;28;20052;-39
2023/07/28 02:01:01;;;;;;;15.52;11.27;;;;;;;21.72;100.00;97913.84;5067300;28;20127;-39
2023/07/28 02:03:27;;;;;;;20.65;13.85;;;;;;;21.75;100.00;97908.19;5067153;28;20869;-40
2023/07/28 02:05:53;;;;;;;17.33;13.10;;;;;;;21.79;100.00;97910.34;5049888;28;20029;-39
2023/07/28 02:08:18;;;;;;;15.27;12.55;;;;;;;21.66;100.00;97877.47;5067276;28;20059;-39
2023/07/28 02:10:45;;;;;;;18.45;13.57;;;;;;;21.69;100.00;97874.47;5068243;28;20090;-39
2023/07/28 02:13:11;;;;;;;21.50;15.77;;;;;;;21.85;100.00;97901.75;5046762;28;20109;-39
2023/07/28 02:15:40;;;;;;;17.10;13.88;;;;;;;21.84;100.00;97912.50;5055157;28;20432;-38
2023/07/28 02:18:06;;;;;;;17.83;14.23;;;;;;;21.86;100.00;97914.00;5068062;28;20102;-37
2023/07/28 02:20:33;;;;;;;19.08;13.65;;;;;;;21.85;100.00;97917.63;5069069;28;20036;-39
2023/07/28 02:22:59;;;;;;;20.33;14.88;;;;;;;21.88;100.00;97911.97;5050689;28;20567;-40
2023/07/28 02:25:25;;;;;;;18.25;12.88;;;;;;;21.90;100.00;97901.25;5049287;28;20048;-39
2023/07/28 02:27:51;;;;;;;18.77;14.85;;;;;;;21.90;100.00;97898.59;5051386;28;20463;-39
2023/07/28 02:30:17;;;;;;;19.85;14.63;;;;;;;21.93;100.00;97907.00;5069227;28;20047;-39
2023/07/28 02:32:43;;;;;;;23.50;15.43;;;;;;;21.93;100.00;97911.47;5047251;28;20398;-39
2023/07/28 02:35:10;;;;;;;22.67;14.90;;;;;;;21.92;100.00;97902.75;5043756;28;20037;-40
2023/07/28 02:37:37;;;;;;;19.58;14.38;;;;;;;21.92;100.00;97913.31;5051002;28;20040;-39
2023/07/28 02:40:03;;;;;;;21.35;16.95;;;;;;;21.95;100.00;97922.75;5051160;28;20524;-43
2023/07/28 02:42:30;;;;;;;20.33;14.50;;;;;;;21.95;100.00;97918.31;5064645;28;20036;-39
2023/07/28 02:44:56;;;;;;;20.63;14.63;;;;;;;21.98;100.00;97940.97;5064244;28;20048;-40
2023/07/28 02:47:22;;;;;;;19.75;14.93;;;;;;;22.00;100.00;97940.78;5067439;28;20058;-39
2023/07/28 02:49:48;;;;;;;18.75;14.40;;;;;;;21.85;100.00;97917.63;5067481;28;20075;-39
2023/07/28 02:52:14;;;;;;;22.58;15.35;;;;;;;22.03;100.00;97948.41;5048947;28;20195;-39
2023/07/28 02:54:40;;;;;;;22.33;15.18;;;;;;;22.04;100.00;97966.75;5068740;28;20033;-39
2023/07/28 02:57:07;;;;;;;23.48;15.40;;;;;;;22.03;100.00;97975.69;5059272;28;20151;-39
2023/07/28 02:59:33;;;;;;;19.60;15.25;;;;;;;22.01;100.00;97979.50;5050609;28;20519;-38
2023/07/28 03:01:59;;;;;;;21.00;15.57;;;;;;;22.00;100.00;97959.31;5066817;28;20113;-39
2023/07/28 03:04:25;;;;;;;25.33;15.50;;;;;;;21.75;100.00;97919.63;5067735;28;20036;-39
2023/07/28 03:07:09;;;;;;;20.30;14.98;;;;;;;22.03;100.00;97959.81;5064742;28;20040;-39
2023/07/28 03:09:38;;;;;;;19.40;14.68;;;;;;;22.07;100.00;97955.84;5050727;28;20044;-39
2023/07/28 03:12:05;;;;;;;19.95;15.30;;;;;;;22.13;100.00;97930.53;5063273;28;20048;-38
2023/07/28 03:14:31;;;;;;;19.88;14.48;;;;;;;22.18;100.00;97915.78;5067062;28;20053;-40
2023/07/28 03:17:00;;;;;;;22.63;15.27;;;;;;;22.23;100.00;97921.41;5066855;28;20045;-39
2023/07/28 03:19:26;;;;;;;21.50;15.27;;;;;;;22.30;100.00;97942.72;5050389;28;20056;-40
2023/07/28 03:21:52;;;;;;;19.55;14.07;;;;;;;22.38;100.00;97975.31;5066858;28;20054;-39
2023/07/28 03:24:19;;;;;;;19.13;14.35;;;;;;;22.28;100.00;97976.50;5050364;28;20734;-39
2023/07/28 03:26:45;;;;;;;16.67;13.57;;;;;;;22.45;100.00;98001.13;5066745;28;20049;-39
2023/07/28 03:29:11;;;;;;;18.42;13.80;;;;;;;22.48;100.00;98011.38;5066001;28;20044;-40
2023/07/28 03:31:37;;;;;;;17.23;13.98;;;;;;;22.49;100.00;98020.97;5062145;28;20456;-39
2023/07/28 03:34:04;;;;;;;16.80;12.88;;;;;;;22.56;100.00;97987.53;5046803;28;20059;-39
2023/07/28 03:36:31;;;;;;;18.05;12.77;;;;;;;22.45;99.86;97959.59;5048421;28;20130;-39
2023/07/28 03:38:57;;;;;;;18.10;13.52;;;;;;;22.64;99.07;97969.78;5050245;28;20182;-39
2023/07/28 03:41:25;;;;;;;18.20;12.40;;;;;;;22.69;98.33;97987.81;5050376;28;20036;-38
2023/07/28 03:43:51;;;;;;;17.38;12.13;;;;;;;22.72;97.42;97996.28;5049239;28;20059;-39
2023/07/28 03:46:17;;;;;;;19.88;13.20;;;;;;;22.65;96.63;98005.06;5064475;28;20079;-40
2023/07/28 03:48:43;;;;;;;17.90;13.38;;;;;;;22.65;96.65;98050.91;5049789;28;20044;-40
2023/07/28 03:51:09;;;;;;;16.90;11.70;;;;;;;22.58;96.38;98088.84;5065867;28;20040;-39
2023/07/28 03:53:35;;;;;;;17.55;12.15;;;;;;;22.45;96.57;98101.78;5066417;28;20072;-41
2023/07/28 03:56:03;;;;;;;17.30;11.38;;;;;;;22.38;97.15;98114.84;5083513;28;20436;-39
2023/07/28 03:58:30;;;;;;;18.30;11.07;;;;;;;22.30;96.48;98165.13;5045944;28;20060;-39
2023/07/28 04:00:56;;;;;;;31.25;15.15;;;;;;;22.09;96.58;98188.56;5068186;28;20110;-39
2023/07/28 04:03:21;;;;;;;31.08;18.38;;;;;;;21.30;100.00;98143.97;5033186;28;20094;-39
2023/07/28 04:05:47;;;;;;;23.27;11.85;;;;;;;20.71;100.00;98143.72;5068120;28;20036;-39
2023/07/28 04:08:13;;;;;;;25.60;17.95;;;;;;;20.34;100.00;98074.47;5066171;28;20050;-38
2023/07/28 04:10:39;;;;;;;30.80;18.05;;;;;;;20.39;100.00;98101.22;5047919;28;20079;-38
2023/07/28 04:13:05;;;;;;;31.63;18.20;;;;;;;20.27;100.00;98065.44;5071651;28;20043;-37
2023/07/28 04:15:30;;;;;;;34.60;20.90;;;;;;;20.20;100.00;98025.63;5070360;28;20135;-38
2023/07/28 04:17:57;;;;;;;37.13;22.75;;;;;;;20.24;100.00;97920.63;5069010;28;20048;-39
2023/07/28 04:20:22;;;;;;;48.65;25.90;;;;;;;20.32;100.00;97886.38;5064043;28;20052;-38
2023/07/28 04:22:48;;;;;;;54.70;28.27;;;;;;;20.37;100.00;97836.59;5078170;28;20044;-39
2023/07/28 04:25:14;;;;;;;44.30;25.90;;;;;;;20.44;100.00;97832.31;5069540;28;20047;-38
2023/07/28 04:27:45;;;;;;;52.90;27.95;;;;;;;20.43;100.00;97820.09;5070432;28;20561;-38
2023/07/28 04:30:12;;;;;;;50.78;26.90;;;;;;;20.44;100.00;97816.50;5070076;28;20044;-39
2023/07/28 04:32:38;;;;;;;50.90;28.13;;;;;;;20.47;100.00;97813.50;5069127;28;20084;-38
2023/07/28 04:35:13;;;;;;;54.50;27.63;;;;;;;20.32;100.00;97823.03;5035088;28;20439;-38
2023/07/28 04:38:04;;;;;;;61.03;30.25;;;;;;;20.39;100.00;97831.16;5051652;28;20120;-39
2023/07/28 04:40:45;;;;;;;63.40;30.70;;;;;;;20.51;100.00;97837.81;5081556;28;20048;-38
2023/07/28 04:43:13;;;;;;;56.63;30.42;;;;;;;20.52;100.00;97856.09;5061368;28;20067;-38
2023/07/28 04:45:44;;;;;;;56.67;28.80;;;;;;;20.52;100.00;97876.41;5056041;28;20040;-38
2023/07/28 04:48:15;;;;;;;51.80;28.92;;;;;;;20.47;100.00;97863.66;5069509;28;20044;-38
2023/07/28 04:50:40;;;;;;;56.63;28.08;;;;;;;20.49;100.00;97877.56;5050930;28;20059;-38
2023/07/28 04:53:26;;;;;;;68.63;31.50;;;;;;;20.55;100.00;97869.00;5070455;28;20048;-37
2023/07/28 04:56:07;;;;;;;59.45;30.38;;;;;;;20.63;100.00;97884.84;5067143;28;20067;-38
2023/07/28 04:58:33;;;;;;;57.38;29.42;;;;;;;20.68;100.00;97884.38;5068457;28;20044;-38
2023/07/28 05:01:02;;;;;;;63.65;30.85;;;;;;;20.73;100.00;97887.38;5065530;28;20044;-38
2023/07/28 05:03:29;;;;;;;47.47;26.65;;;;;;;20.75;100.00;97897.78;5049784;28;20415;-39
2023/07/28 05:06:10;;;;;;;59.05;31.42;;;;;;;20.82;100.00;97894.34;5068160;28;20078;-38
2023/07/28 05:08:36;;;;;;;50.10;28.27;;;;;;;20.95;100.00;97901.78;5068433;28;20063;-39
2023/07/28 05:11:02;;;;;;;57.33;29.17;;;;;;;21.09;100.00;97927.63;5069148;28;20135;-38
2023/07/28 05:13:31;;;;;;;48.33;28.88;;;;;;;21.17;100.00;97921.53;5052725;28;20043;-37
2023/07/28 05:15:57;;;;;;;42.67;26.13;;;;;;;21.31;100.00;97915.59;5068191;28;20419;-38
2023/07/28 05:18:46;;;;;;;;;;;;;;;21.31;100.00;97928.81;5070683;28;20059;-38
2023/07/28 05:21:44;;;;;;;41.53;25.27;;;;;;;21.33;100.00;97935.63;5035395;28;19962;-39
2023/07/28 05:24:13;;;;;;;39.17;24.45;;;;;;;21.25;100.00;97926.84;5068901;28;20094;-39
2023/07/28 05:26:39;;;;;;;38.53;24.52;;;;;;;21.23;100.00;97936.75;5048186;28;20076;-40
2023/07/28 05:29:05;;;;;;;38.33;23.58;;;;;;;21.18;100.00;97947.81;5032339;28;20430;-39
2023/07/28 05:31:31;;;;;;;43.35;26.10;;;;;;;21.08;100.00;97934.72;5032431;28;20093;-40
2023/07/28 05:33:58;;;;;;;40.67;24.63;;;;;;;20.96;100.00;97933.34;5067158;28;20488;-39
2023/07/28 05:36:24;;;;;;;46.58;27.00;;;;;;;21.06;100.00;97951.69;5062881;28;20086;-39
2023/07/28 05:38:56;;;;;;;48.85;28.33;;;;;;;21.07;100.00;97945.44;5068982;28;20059;-39
2023/07/28 05:41:26;;;;;;;42.83;26.35;;;;;;;20.96;100.00;97924.59;5068818;28;20115;-39
2023/07/28 05:43:52;;;;;;;39.83;24.88;;;;;;;21.24;100.00;97936.59;5067878;28;20536;-39
2023/07/28 05:46:18;;;;;;;38.92;25.48;;;;;;;21.46;100.00;97938.59;5034960;28;20516;-39
2023/07/28 05:48:45;;;;;;;34.95;22.63;;;;;;;21.65;100.00;97934.00;5068613;28;20039;-39
2023/07/28 05:51:11;;;;;;;36.80;21.95;;;;;;;21.67;100.00;97937.31;5067292;28;20040;-39
2023/07/28 05:53:38;;;;;;;35.50;23.08;;;;;;;21.68;100.00;97941.59;5068627;28;20037;-39
2023/07/28 05:56:06;;;;;;;32.03;22.00;;;;;;;21.69;100.00;97937.94;5050746;28;20515;-38
2023/07/28 05:58:33;;;;;;;31.40;20.15;;;;;;;21.69;100.00;97938.78;5067088;28;20044;-38
2023/07/28 06:00:59;;;;;;;25.35;17.95;;;;;;;21.77;100.00;97937.97;5068710;28;20464;-38
2023/07/28 06:03:49;;;;;;;;;;;;;;;21.70;100.00;97932.50;5070165;28;20051;-39
2023/07/28 06:06:22;;;;;;;28.38;19.83;;;;;;;21.64;100.00;97946.38;5049108;28;21939;-38
2023/07/28 06:08:49;;;;;;;30.98;19.40;;;;;;;21.77;100.00;97940.63;5048615;28;20118;-40
2023/07/28 06:11:16;;;;;;;28.23;18.10;;;;;;;21.93;100.00;97933.47;5056044;28;20357;-38
2023/07/28 06:13:41;;;;;;;25.55;16.90;;;;;;;22.03;100.00;97946.59;5066987;28;20060;-39
2023/07/28 06:16:07;;;;;;;27.63;17.08;;;;;;;22.07;100.00;97966.44;5051602;28;20071;-39
2023/07/28 06:18:33;;;;;;;27.15;17.10;;;;;;;21.98;100.00;97967.44;5066889;28;20036;-39
2023/07/28 06:21:10;;;;;;;24.75;16.85;;;;;;;21.75;100.00;97964.59;5050389;28;20507;-40
2023/07/28 06:23:36;;;;;;;23.98;17.58;;;;;;;21.59;100.00;97908.19;5067628;28;20089;-40
2023/07/28 06:26:02;;;;;;;19.88;14.20;;;;;;;21.79;100.00;97946.56;5050811;28;20052;-40
2023/07/28 06:28:28;;;;;;;21.02;13.82;;;;;;;21.66;100.00;97944.41;5067447;28;20118;-39
2023/07/28 06:30:55;;;;;;;20.52;15.70;;;;;;;21.73;100.00;97937.44;5068044;28;20504;-39
2023/07/28 06:33:26;;;;;;;21.65;15.40;;;;;;;22.00;100.00;97968.06;5067367;28;20041;-39
2023/07/28 06:35:52;;;;;;;16.75;12.68;;;;;;;22.05;100.00;97970.22;5065016;28;20091;-39
2023/07/28 06:38:18;;;;;;;19.55;13.40;;;;;;;21.90;100.00;97977.97;5068080;28;20044;-39
2023/07/28 06:40:44;;;;;;;20.67;14.00;;;;;;;21.89;100.00;98008.06;5063448;28;20505;-39
2023/07/28 06:43:10;;;;;;;37.47;15.02;;;;;;;21.79;100.00;98055.84;5067230;28;20910;-40
2023/07/28 06:45:37;;;;;;;26.10;14.85;;;;;;;21.49;100.00;98094.28;5067418;28;20040;-38
2023/07/28 06:48:03;;;;;;;25.17;15.93;;;;;;;21.13;100.00;98079.56;5067438;28;20037;-38
2023/07/28 06:50:29;;;;;;;26.83;16.90;;;;;;;20.88;100.00;98107.69;5049957;28;20068;-39
2023/07/28 06:52:55;;;;;;;36.80;18.40;;;;;;;20.79;100.00;98148.22;5050561;28;20637;-38
2023/07/28 06:55:25;;;;;;;37.35;16.33;;;;;;;20.55;100.00;98212.25;5066489;28;20090;-39
2023/07/28 06:57:52;;;;;;;27.17;15.43;;;;;;;20.45;100.00;98215.94;5067553;28;20055;-38
2023/07/28 07:00:18;;;;;;;31.02;14.32;;;;;;;20.28;100.00;98236.84;5067521;28;20036;-38
2023/07/28 07:02:44;;;;;;;43.15;17.33;;;;;;;20.18;100.00;98217.63;5050197;28;20388;-38
2023/07/28 07:05:11;;;;;;;31.35;17.73;;;;;;;19.99;100.00;98158.88;5050497;28;20509;-38
2023/07/28 07:07:40;;;;;;;32.95;17.50;;;;;;;19.81;100.00;98119.28;5068313;28;20036;-37
2023/07/28 07:10:07;;;;;;;34.28;18.45;;;;;;;19.88;100.00;98115.91;5064579;28;20040;-38
2023/07/28 07:12:32;;;;;;;39.38;19.85;;;;;;;19.81;100.00;98090.25;5049592;28;20044;-38
2023/07/28 07:14:59;;;;;;;33.20;17.02;;;;;;;19.92;100.00;98107.69;5068476;28;20044;-37
2023/07/28 07:17:25;;;;;;;27.25;15.30;;;;;;;19.92;100.00;98078.66;5068687;28;20047;-37
2023/07/28 07:19:51;;;;;;;31.58;17.27;;;;;;;19.63;100.00;98007.66;5060711;28;20045;-39
2023/07/28 07:22:16;;;;;;;24.55;15.77;;;;;;;19.87;100.00;98027.19;5067991;28;20044;-38
2023/07/28 07:24:42;;;;;;;35.67;19.83;;;;;;;19.95;100.00;97993.94;5045624;28;20048;-38
2023/07/28 07:27:10;;;;;;;44.80;20.63;;;;;;;19.84;100.00;97960.72;5065254;28;20131;-38
2023/07/28 07:29:39;;;;;;;33.20;17.40;;;;;;;20.11;100.00;98033.66;5067144;28;20040;-38
2023/07/28 07:32:06;;;;;;;48.03;23.27;;;;;;;20.12;100.00;98033.50;5067103;28;20060;-38
2023/07/28 07:34:33;;;;;;;31.02;16.90;;;;;;;20.18;100.00;98022.34;5065240;28;20041;-38
2023/07/28 07:36:59;;;;;;;40.03;19.80;;;;;;;20.19;100.00;97999.44;5066420;28;20041;-38
2023/07/28 07:39:25;;;;;;;43.60;21.98;;;;;;;20.20;100.00;97970.22;5046170;28;20036;-39
2023/07/28 07:41:51;;;;;;;54.38;23.15;;;;;;;20.38;100.00;97995.78;5066113;28;20526;-37
2023/07/28 07:44:17;;;;;;;31.55;17.50;;;;;;;20.47;100.00;98005.41;5064749;28;20040;-38
2023/07/28 07:46:43;;;;;;;29.67;17.98;;;;;;;20.42;100.00;98020.88;5067062;28;20166;-38
2023/07/28 07:49:09;;;;;;;28.15;15.25;;;;;;;20.28;100.00;98040.72;5071357;28;20036;-38
2023/07/28 07:51:35;;;;;;;29.85;16.73;;;;;;;20.26;100.00;98046.16;5071055;28;20093;-39
2023/07/28 07:54:03;;;;;;;33.20;16.35;;;;;;;20.27;100.00;98037.25;5070763;28;20419;-38
2023/07/28 07:56:29;;;;;;;26.02;15.38;;;;;;;20.37;100.00;98042.47;5075291;28;20091;-38
2023/07/28 07:58:55;;;;;;;26.13;16.13;;;;;;;20.50;100.00;98040.25;5066359;28;20599;-38
2023/07/28 08:01:21;;;;;;;34.45;18.83;;;;;;;20.64;100.00;98041.50;5070635;28;20135;-39
2023/07/28 08:03:47;;;;;;;30.30;18.20;;;;;;;20.78;100.00;98056.75;5071790;28;20074;-38
2023/07/28 08:06:13;;;;;;;27.70;15.93;;;;;;;20.83;100.00;98053.66;5070644;28;20028;-39
2023/07/28 08:08:40;;;;;;;21.77;13.52;;;;;;;20.67;100.00;98046.47;5069262;28;20048;-39
2023/07/28 08:11:07;;;;;;;22.30;13.45;;;;;;;20.66;100.00;98050.09;5069622;28;20427;-39
2023/07/28 08:13:33;;;;;;;22.15;14.65;;;;;;;20.58;100.00;98037.66;5070495;28;20041;-40
2023/07/28 08:15:59;;;;;;;26.48;15.93;;;;;;;20.94;100.00;98059.47;5069551;28;20040;-38
2023/07/28 08:18:24;;;;;;;26.92;16.50;;;;;;;21.40;100.00;98054.78;5079218;28;20041;-38
2023/07/28 08:20:50;;;;;;;18.75;11.80;;;;;;;22.08;100.00;98058.06;5042503;28;20044;-38
2023/07/28 08:23:17;;;;;;;15.60;9.82;;;;;;;22.38;100.00;98054.75;5059600;28;20083;-39
2023/07/28 08:25:43;;;;;;;14.95;9.80;;;;;;;23.31;100.00;98063.00;5058914;28;20040;-39
2023/07/28 08:28:09;;;;;;;13.30;9.48;;;;;;;24.30;100.00;98059.59;5066811;28;20041;-40
2023/07/28 08:30:35;;;;;;;12.55;8.35;;;;;;;24.96;100.00;98042.91;5064042;28;20044;-39
2023/07/28 08:33:01;;;;;;;9.02;6.40;;;;;;;25.57;100.00;98052.28;5070215;28;20036;-38
2023/07/28 08:35:27;;;;;;;11.48;5.65;;;;;;;26.04;100.00;98051.75;5058641;28;20087;-39
2023/07/28 08:37:53;;;;;;;10.77;5.63;;;;;;;26.20;100.00;98074.66;5062638;28;20076;-40
2023/07/28 08:40:19;;;;;;;15.02;8.77;;;;;;;25.52;100.00;98075.13;5066560;28;20094;-39
2023/07/28 08:42:45;;;;;;;11.38;7.22;;;;;;;24.96;100.00;98085.44;5068533;28;20040;-41
2023/07/28 08:45:11;;;;;;;11.75;7.10;;;;;;;24.35;100.00;98058.06;5065401;28;20146;-40
2023/07/28 08:47:37;;;;;;;13.23;8.00;;;;;;;24.13;100.00;98097.91;5079539;28;20118;-40
2023/07/28 08:50:05;;;;;;;9.63;6.70;;;;;;;24.20;100.00;98093.56;5066394;28;20085;-38
2023/07/28 08:52:32;;;;;;;13.48;8.13;;;;;;;24.14;100.00;98104.84;5079762;28;20462;-37
2023/07/28 08:54:58;;;;;;;9.65;7.20;;;;;;;24.03;100.00;98106.06;5075108;28;20068;-39
2023/07/28 08:57:24;;;;;;;9.35;6.10;;;;;;;23.95;100.00;98095.53;5065413;28;20433;-38
2023/07/28 08:59:50;;;;;;;9.18;6.25;;;;;;;23.90;100.00;98101.38;5058499;28;20036;-38
2023/07/28 09:02:18;;;;;;;10.05;6.03;;;;;;;23.72;100.00;98097.31;5065066;28;20029;-39
2023/07/28 09:04:45;;;;;;;8.05;6.03;;;;;;;23.24;100.00;98083.22;5058052;28;20105;-39
2023/07/28 09:07:11;;;;;;;10.95;7.30;;;;;;;23.07;100.00;98106.34;5059555;28;20055;-38
2023/07/28 09:09:38;;;;;;;11.07;7.63;;;;;;;22.84;100.00;98110.69;5050576;28;20066;-38
2023/07/28 09:12:04;;;;;;;10.35;7.68;;;;;;;22.75;100.00;98101.94;5032858;28;20036;-37
2023/07/28 09:14:30;;;;;;;11.10;8.00;;;;;;;22.88;100.00;98108.53;5058637;28;20807;-38
2023/07/28 09:17:08;;;;;;;11.88;8.48;;;;;;;23.24;100.00;98120.34;5047603;28;20074;-37
2023/07/28 09:19:33;;;;;;;13.15;8.38;;;;;;;24.14;100.00;98118.94;5058378;28;20048;-38
2023/07/28 09:22:01;;;;;;;13.70;7.85;;;;;;;25.03;100.00;98115.59;5063337;28;20040;-43
2023/07/28 09:24:32;;;;;;;11.90;7.32;;;;;;;24.82;100.00;98129.56;5061918;28;21432;-38
2023/07/28 09:26:59;;;;;;;11.57;7.22;;;;;;;24.09;100.00;98139.91;5078833;28;20036;-38
2023/07/28 09:29:27;;;;;;;14.85;7.40;;;;;;;23.65;100.00;98144.97;5061231;28;20047;-39
2023/07/28 09:31:54;;;;;;;13.27;8.63;;;;;;;23.26;100.00;98113.06;5064300;28;20037;-36
2023/07/28 09:34:27;;;;;;;10.45;7.93;;;;;;;23.28;100.00;98153.53;5058226;28;20037;-38
2023/07/28 09:36:57;;;;;;;8.40;6.18;;;;;;;23.02;100.00;98167.00;5064354;28;20037;-36
2023/07/28 09:39:23;;;;;;;8.80;7.38;;;;;;;22.76;100.00;98169.84;5066374;28;20613;-36
2023/07/28 09:41:49;;;;;;;9.68;6.47;;;;;;;22.51;100.00;98191.97;5049885;28;20044;-35
2023/07/28 09:44:16;;;;;;;10.68;8.15;;;;;;;22.32;100.00;98186.97;5066430;28;20037;-36
2023/07/28 09:46:53;;;;;;;13.23;7.95;;;;;;;22.39;100.00;98206.53;5069164;28;20148;-36
2023/07/28 09:49:32;;;;;;;9.30;6.90;;;;;;;22.34;100.00;98183.19;5046317;28;20048;-34
2023/07/28 09:52:12;;;;;;;8.55;7.18;;;;;;;22.33;100.00;98191.28;5063141;28;20048;-36
2023/07/28 09:54:43;;;;;;;8.88;7.03;;;;;;;22.38;100.00;98170.44;5051953;28;20041;-36
2023/07/28 09:57:13;;;;;;;10.18;7.20;;;;;;;22.38;100.00;98136.03;5059647;28;20109;-36
2023/07/28 09:59:41;;;;;;;12.40;8.18;;;;;;;22.55;100.00;98164.19;5058539;28;20059;-36
2023/07/28 10:02:08;;;;;;;11.63;7.93;;;;;;;22.60;100.00;98164.50;5064307;28;20044;-37
2023/07/28 10:04:34;;;;;;;8.43;7.32;;;;;;;22.85;100.00;98194.50;5063122;28;20124;-35
2023/07/28 10:07:01;;;;;;;12.55;7.85;;;;;;;22.79;100.00;98190.69;5057638;28;20151;-37
2023/07/28 10:09:29;;;;;;;9.13;8.07;;;;;;;22.57;100.00;98145.44;5060575;28;20119;-37
2023/07/28 10:11:57;;;;;;;10.32;7.75;;;;;;;22.86;100.00;98172.31;5071882;28;20542;-35
2023/07/28 10:14:30;;;;;;;11.35;8.13;;;;;;;22.84;100.00;98161.03;5060173;28;20135;-35
2023/07/28 10:17:04;;;;;;;14.15;9.10;;;;;;;22.81;100.00;98169.34;5068461;28;20045;-34
2023/07/28 10:19:35;;;;;;;13.43;8.68;;;;;;;22.77;100.00;98175.94;5062351;28;20041;-36
2023/07/28 10:22:06;;;;;;;11.68;8.85;;;;;;;22.69;100.00;98183.88;5044110;28;20036;-36
2023/07/28 10:24:54;;;;;;;13.30;8.20;;;;;;;22.72;100.00;98210.06;5059453;28;20079;-40
2023/07/28 10:27:36;;;;;;;12.05;8.32;;;;;;;22.61;100.00;98197.94;5061242;28;20085;-39
2023/07/28 10:30:05;;;;;;;18.33;10.60;;;;;;;22.47;100.00;98188.00;5063699;28;20067;-39
2023/07/28 10:32:40;;;;;;;17.88;11.10;;;;;;;22.39;100.00;98178.25;5062996;28;20500;-46
2023/07/28 10:35:08;;;;;;;14.73;10.15;;;;;;;22.33;100.00;98156.88;5074807;28;20090;-35
2023/07/28 10:37:36;;;;;;;19.50;9.93;;;;;;;22.21;100.00;98148.41;5058064;28;20047;-35
2023/07/28 10:40:31;;;;;;;14.48;11.40;;;;;;;22.22;100.00;98147.44;5061074;28;20045;-36
2023/07/28 10:42:57;;;;;;;15.00;10.57;;;;;;;22.30;100.00;98136.00;5056305;28;20065;-37
2023/07/28 10:45:25;;;;;;;14.23;10.52;;;;;;;22.25;100.00;98120.59;5057581;28;20040;-35
2023/07/28 10:47:52;;;;;;;12.93;10.73;;;;;;;22.14;100.00;98075.91;5054739;28;20032;-35
2023/07/28 10:50:18;;;;;;;14.00;11.23;;;;;;;22.35;100.00;98121.28;5049670;28;20040;-39
2023/07/28 10:52:45;;;;;;;16.75;12.15;;;;;;;22.23;100.00;98097.94;5066888;28;20516;-38
2023/07/28 10:55:15;;;;;;;14.30;11.30;;;;;;;22.48;100.00;98119.97;5051267;28;20041;-38
2023/07/28 10:57:43;;;;;;;17.00;12.00;;;;;;;22.42;100.00;98115.31;5066953;28;20133;-38
2023/07/28 11:00:13;;;;;;;16.30;12.85;;;;;;;22.46;100.00;98125.41;5066943;28;20500;-37
2023/07/28 11:02:43;;;;;;;13.15;10.38;;;;;;;22.38;100.00;98152.75;5064993;28;20590;-36
2023/07/28 11:05:28;;;;;;;17.27;12.18;;;;;;;22.12;100.00;98136.16;5063294;28;20040;-38
2023/07/28 11:07:58;;;;;;;16.23;11.25;;;;;;;21.98;100.00;98125.38;5064394;28;20068;-38
2023/07/28 11:10:25;;;;;;;12.57;9.90;;;;;;;21.84;100.00;98126.78;5066594;28;20577;-37
2023/07/28 11:12:52;;;;;;;12.45;9.68;;;;;;;21.92;100.00;98098.56;5059481;28;20059;-37
2023/07/28 11:15:19;;;;;;;14.38;10.05;;;;;;;22.04;100.00;98093.78;5064628;28;20048;-37
2023/07/28 11:17:50;;;;;;;14.15;8.90;;;;;;;22.18;100.00;98077.28;5052102;28;20070;-37